• Join FlightAware (Why Join?)
  • Login
  • US Flag 
08:38AM EDT


 

Airport Tracker/Info


-or-


 

Live Flight TrackerFlight Track Log ✈ AIC102 ✈ 09-Aug-2012 ✈ KJFK - LFPG / CDG

Flight Track Log - Related Links

Times and Time Zones

All times are in EDT time to prevent confusion due to time zone crossing. See the AIC102 flight status page for this flight to view local times or setup timezone preferences in your user account.

Time Position Orientation Groundspeed Altitude Reporting Facility
EDT Latitude Longitude Course Direction KTS MPH feet Rate Location/Type
06:15PM 40.6000 -73.8000 207° Southwest 191 220 2,200  Level New York TRACON
06:16PM 40.5500 -73.8333 118° Southeast 228 262 3,900 2,040 Climbing New York TRACON
06:17PM 40.5167 -73.7500 62° Northeast 286 329 6,300 2,460 Climbing New York TRACON
06:18PM 40.5500 -73.6667 37° Northeast 299 344 8,900 2,340 Climbing New York TRACON
06:19PM 40.6167 -73.6000 37° Northeast 323 372 11,000 1,020 Climbing New York TRACON
06:20PM 40.7000 -73.5167 37° Northeast 384 442 11,000  Level New York TRACON
06:21PM 40.8000 -73.4167 16° North 385 443 11,000 1,140 Level New York TRACON
06:24PM 41.0800 -73.3103 16° North 373 429 15,700 1,440 Climbing Boston Center
06:25PM 41.1928 -73.2675 27° Northeast 394 453 17,000 1,440 Climbing Boston Center
06:26PM 41.3122 -73.1861 35° Northeast 418 481 18,600 1,800 Climbing Boston Center
06:27PM 41.4022 -73.1014 59° Northeast 424 488 20,600 2,040 Climbing Boston Center
06:28PM 41.4697 -72.9525 61° Northeast 429 494 22,700 1,200 Climbing Boston Center
06:29PM 41.5308 -72.8033 61° Northeast 449 517 23,000 120 Climbing Boston Center
06:30PM 41.5936 -72.6539 59° Northeast 449 517 23,000  Level Boston Center
06:31PM 41.6606 -72.5067 60° Northeast 455 524 23,000  Level Boston Center
06:32PM 41.7250 -72.3594 59° Northeast 461 531 23,100 960 Climbing Boston Center
06:33PM 41.7936 -72.2089 58° Northeast 466 536 25,000 1,800 Climbing Boston Center
06:34PM 41.8642 -72.0553 59° Northeast 471 542 26,800 1,620 Climbing Boston Center
06:35PM 41.9364 -71.8903 46° Northeast 484 557 28,300 1,500 Climbing Boston Center
06:36PM 42.0356 -71.7525 53° Northeast 492 566 29,800 1,800 Climbing Boston Center
06:37PM 42.1222 -71.5975 55° Northeast 509 586 32,000 1,560 Climbing Boston Center
06:38PM 42.2103 -71.4283 52° Northeast 504 580 33,000 480 Climbing Boston Center
06:39PM 42.2986 -71.2753 46° Northeast 504 580 33,000  Level Boston Center
06:40PM 42.3950 -71.1414 39° Northeast 504 580 33,000  Level Boston Center
06:41PM 42.5061 -71.0206 39° Northeast 499 574 33,000 540 Level Boston Center
06:42PM 42.6172 -70.8997 38° Northeast 505 581 34,100 960 Climbing Boston Center
06:43PM 42.7281 -70.7811 39° Northeast 505 581 35,000 420 Climbing Boston Center
06:44PM 42.8386 -70.6592 40° Northeast 510 587 35,000  Level Boston Center
06:45PM 42.9472 -70.5367 39° Northeast 510 587 35,000  Level Boston Center
06:46PM 43.0578 -70.4139 40° Northeast 510 587 35,000  Level Boston Center
06:47PM 43.1639 -70.2939 40° Northeast 505 581 35,000  Level Boston Center
06:48PM 43.2719 -70.1703 40° Northeast 505 581 35,000  Level Boston Center
06:49PM 43.3758 -70.0519 39° Northeast 505 581 35,000  Level Boston Center
06:50PM 43.4856 -69.9275 39° Northeast 505 581 35,000  Level Boston Center
06:51PM 43.5956 -69.8025 39° Northeast 505 581 35,000  Level Boston Center
06:52PM 43.7050 -69.6800 40° Northeast 505 581 35,000  Level Boston Center
06:53PM 43.8144 -69.5542 40° Northeast 510 587 35,000  Level Boston Center
06:54PM 43.9219 -69.4306 40° Northeast 510 587 35,000  Level Boston Center
06:55PM 44.0311 -69.3039 40° Northeast 510 587 35,000  Level Boston Center
06:56PM 44.1400 -69.1767 40° Northeast 510 587 35,000  Level Boston Center
06:57PM 44.2469 -69.0519 39° Northeast 510 587 35,000  Level Boston Center
06:58PM 44.3578 -68.9264 41° Northeast 510 587 35,000  Level Boston Center
06:59PM 44.4642 -68.7981 40° Northeast 510 587 35,000  Level Boston Center
07:00PM 44.5747 -68.6686 40° Northeast 510 587 35,000  Level Boston Center
07:01PM 44.6808 -68.5419 40° Northeast 510 587 35,000  Level Boston Center
07:02PM 44.7892 -68.4119 40° Northeast 510 587 35,000  Level Boston Center
07:03PM 44.8989 -68.2811 40° Northeast 510 587 35,000  Level Boston Center
07:04PM 45.0047 -68.1533 41° Northeast 510 587 35,000  Level Boston Center
07:05PM 45.1144 -68.0186 41° Northeast 510 587 35,000  Level Boston Center
07:06PM 45.2197 -67.8867 40° Northeast 510 587 35,000  Level Boston Center
07:07PM 45.3292 -67.7569 43° Northeast 510 587 35,000  Level Boston Center
07:08PM 45.4333 -67.6167 48° Northeast 510 587 35,000  Level Moncton Center
07:09PM 45.5167 -67.4833 42° Northeast 520 598 35,000  Level Moncton Center
07:10PM 45.6333 -67.3333 43° Northeast 520 598 35,000  Level Moncton Center
07:11PM 45.7333 -67.2000 39° Northeast 520 598 35,000  Level Moncton Center
07:12PM 45.8500 -67.0667 46° Northeast 520 598 35,000  Level Moncton Center
07:13PM 45.9500 -66.9167 43° Northeast 520 598 35,000  Level Moncton Center
07:14PM 46.0500 -66.7833 49° Northeast 520 598 35,000  Level Moncton Center
07:15PM 46.1500 -66.6167 43° Northeast 520 598 35,000  Level Moncton Center
07:16PM 46.2500 -66.4833 42° Northeast 520 598 35,000  Level Moncton Center
07:17PM 46.3667 -66.3333 43° Northeast 520 598 35,000  Level Moncton Center
07:18PM 46.4667 -66.2000 46° Northeast 520 598 35,000  Level Moncton Center
07:19PM 46.5667 -66.0500 42° Northeast 520 598 35,000  Level Moncton Center
07:20PM 46.6667 -65.9167 46° Northeast 520 598 35,000  Level Moncton Center
07:21PM 46.7667 -65.7667 44° Northeast 520 598 35,000  Level Moncton Center
07:22PM 46.8833 -65.6000 41° Northeast 520 598 35,000  Level Moncton Center
07:23PM 47.0000 -65.4500 46° Northeast 530 610 35,000  Level Moncton Center
07:24PM 47.1000 -65.3000 42° Northeast 530 610 35,000  Level Moncton Center
07:25PM 47.2000 -65.1667 47° Northeast 530 610 35,000  Level Moncton Center
07:26PM 47.3167 -64.9833 42° Northeast 530 610 35,000  Level Moncton Center
07:27PM 47.4167 -64.8500 45° Northeast 530 610 35,000  Level Moncton Center
07:28PM 47.5167 -64.7000 45° Northeast 530 610 35,000  Level Moncton Center
07:29PM 47.6167 -64.5500 45° Northeast 530 610 35,000  Level Moncton Center
07:30PM 47.7167 -64.4000 46° Northeast 530 610 35,000  Level Moncton Center
07:31PM 47.8333 -64.2167 45° Northeast 530 610 35,000  Level Moncton Center
07:32PM 47.9333 -64.0667 48° Northeast 530 610 35,000  Level Moncton Center
07:33PM 48.0333 -63.9000 45° Northeast 540 621 35,000  Level Moncton Center
07:34PM 48.1333 -63.7500 41° Northeast 540 621 35,000  Level Moncton Center
07:35PM 48.2500 -63.6000 48° Northeast 540 621 35,000  Level Moncton Center
07:36PM 48.3500 -63.4333 49° Northeast 530 610 35,000  Level Moncton Center
07:38PM 48.5333 -63.1167 43° Northeast 530 610 35,000  Level Gander Center
07:39PM 48.6500 -62.9500 45° Northeast 540 621 35,000  Level Gander Center
07:40PM 48.7500 -62.8000 48° Northeast 540 621 35,000  Level Gander Center
07:41PM 48.8500 -62.6333 46° Northeast 540 621 35,000  Level Gander Center
07:42PM 48.9667 -62.4500 44° Northeast 540 621 35,000  Level Gander Center
07:43PM 49.0667 -62.3000 47° Northeast 550 633 35,000  Level Gander Center
07:44PM 49.1667 -62.1333 46° Northeast 550 633 35,000  Level Gander Center
07:45PM 49.2833 -61.9500 50° Northeast 540 621 35,000  Level Gander Center
07:46PM 49.3667 -61.8000 46° Northeast 540 621 35,000  Level Gander Center
07:47PM 49.4833 -61.6167 44° Northeast 540 621 35,000  Level Gander Center
07:48PM 49.5833 -61.4667 50° Northeast 550 633 35,000  Level Gander Center
07:49PM 49.6833 -61.2833 50° Northeast 540 621 35,000  Level Gander Center
07:50PM 49.7833 -61.1000 50° Northeast 540 621 35,000  Level Gander Center
07:51PM 49.8833 -60.9167 44° Northeast 540 621 35,000  Level Gander Center
07:52PM 49.9833 -60.7667 47° Northeast 550 633 35,000  Level Gander Center
07:53PM 50.0833 -60.6000 48° Northeast 540 621 35,000  Level Gander Center
07:54PM 50.2000 -60.4000 47° Northeast 550 633 35,000  Level Gander Center
07:55PM 50.3000 -60.2333 49° Northeast 540 621 35,000  Level Gander Center
07:56PM 50.4000 -60.0500 49° Northeast 550 633 35,000  Level Gander Center
07:57PM 50.5000 -59.8667 49° Northeast 550 633 35,000  Level Gander Center
07:58PM 50.6000 -59.6833 52° Northeast 550 633 35,000  Level Gander Center
07:59PM 50.6833 -59.5167 47° Northeast 550 633 35,000  Level Gander Center
08:00PM 50.8000 -59.3167 49° Northeast 550 633 35,000  Level Gander Center
08:01PM 50.9000 -59.1333 49° Northeast 560 644 35,000  Level Gander Center
08:02PM 51.0000 -58.9500 56° Northeast 560 644 35,000  Level Gander Center
08:04PM 51.1833 -58.5167 54° Northeast 560 644 35,000  Level Moncton Center
08:05PM 51.2667 -58.3333 49° Northeast 560 644 35,000  Level Gander Center
08:06PM 51.3667 -58.1500 53° Northeast 560 644 35,000  Level Gander Center
08:07PM 51.4667 -57.9333 62° Northeast 570 656 35,000  Level Gander Center
08:08PM 51.5333 -57.7333 51° Northeast 560 644 35,000  Level Gander Center
08:09PM 51.6333 -57.5333 58° Northeast 570 656 35,000  Level Gander Center
08:10PM 51.7167 -57.3167 55° Northeast 570 656 35,000  Level Gander Center
08:11PM 51.8167 -57.0833 51° Northeast 560 644 35,000  Level Gander Center
08:12PM 51.9000 -56.9167 57° Northeast 560 644 35,000  Level Gander Center
08:12PM 51.9333 -56.8333 56° Northeast 570 656 35,000  Level Gander Center
08:13PM 52.0167 -56.6333 54° Northeast 560 644 35,000  Level Gander Center
08:14PM 52.0833 -56.4833 56° Northeast 560 644 35,000  Level Gander Center
08:15PM 52.1667 -56.2833 53° Northeast 560 644 35,000  Level Gander Center
08:16PM 52.2667 -56.0667 58° Northeast 570 656 35,000  Level Gander Center
08:17PM 52.3500 -55.8500 58° Northeast 560 644 35,000  Level Gander Center
08:18PM 52.4333 -55.6333 56° Northeast 560 644 35,000  Level Gander Center
08:19PM 52.5167 -55.4333 58° Northeast 560 644 35,000  Level Gander Center
08:20PM 52.6000 -55.2167 50° Northeast 560 644 35,000  Level Gander Center
08:21PM 52.7000 -55.0167 61° Northeast 560 644 35,000  Level Gander Center
08:22PM 52.7667 -54.8167 61° Northeast 560 644 35,000  Level Gander Center
08:23PM 52.8500 -54.5667 54° Northeast 550 633 35,000  Level Gander Center
08:29PM 53.0667 -54.0667 67° East 583 671 35,000  Level ETMS Enhanced Traffic Management System
08:43PM 54.0000 -50.0000 76° East 529 609 35,000  Level ETMS Enhanced Traffic Management System
09:25PM 55.0000 -40.0000 76° East 517 595 35,000  Level ETMS Enhanced Traffic Management System
10:06PM 55.9151 -29.0396 279° West  Level FlightAware Approximate
10:06PM 56.0000 -30.0000 96° East 492 566 35,000  Level ETMS Enhanced Traffic Management System
10:07PM 55.8997 -28.7970 95° East  Level FlightAware Approximate
10:08PM 55.8838 -28.5546 95° East  Level FlightAware Approximate
10:09PM 55.8690 -28.3120 95° East  Level FlightAware Approximate
10:10PM 55.8537 -28.0696 95° East  Level FlightAware Approximate
10:14PM 55.8174 -27.3346 98° East 492 566 35,000  Level FlightAware Transoceanic
10:15PM 55.7980 -27.0937 98° East 492 566 35,000  Level FlightAware Transoceanic
10:16PM 55.7780 -26.8529 98° East 492 566 35,000  Level FlightAware Transoceanic
10:17PM 55.7577 -26.6124 99° East 492 566 35,000  Level FlightAware Transoceanic
10:18PM 55.7368 -26.3722 99° East 492 566 35,000  Level FlightAware Transoceanic
10:19PM 55.7155 -26.1322 99° East 492 566 35,000  Level FlightAware Transoceanic
10:20PM 55.6937 -25.8925 99° East 492 566 35,000  Level FlightAware Transoceanic
10:21PM 55.6714 -25.6530 99° East 492 566 35,000  Level FlightAware Transoceanic
10:22PM 55.6487 -25.4139 100° East 492 566 35,000  Level FlightAware Transoceanic
10:23PM 55.6255 -25.1750 100° East 492 566 35,000  Level FlightAware Transoceanic
10:24PM 55.6019 -24.9363 100° East 492 566 35,000  Level FlightAware Transoceanic
10:25PM 55.5778 -24.6980 100° East 492 566 35,000  Level FlightAware Transoceanic
10:26PM 55.5532 -24.4600 100° East 492 566 35,000  Level FlightAware Transoceanic
10:27PM 55.5282 -24.2223 101° East 492 566 35,000  Level FlightAware Transoceanic
10:28PM 55.5027 -23.9849 101° East 492 566 35,000  Level FlightAware Transoceanic
10:29PM 55.4767 -23.7478 101° East 492 566 35,000  Level FlightAware Transoceanic
10:30PM 55.4503 -23.5110 101° East 492 566 35,000  Level FlightAware Transoceanic
10:31PM 55.4234 -23.2745 101° East 492 566 35,000  Level FlightAware Transoceanic
10:32PM 55.3961 -23.0384 102° East 492 566 35,000  Level FlightAware Transoceanic
10:33PM 55.3683 -22.8025 102° East 492 566 35,000  Level FlightAware Transoceanic
10:34PM 55.3401 -22.5671 102° East 492 566 35,000  Level FlightAware Transoceanic
10:35PM 55.3114 -22.3319 102° East 492 566 35,000  Level FlightAware Transoceanic
10:36PM 55.2823 -22.0971 102° East 492 566 35,000  Level FlightAware Transoceanic
10:37PM 55.2527 -21.8626 103° East 492 566 35,000  Level FlightAware Transoceanic
10:38PM 55.2227 -21.6285 103° East 492 566 35,000  Level FlightAware Transoceanic
10:39PM 55.1922 -21.3948 103° East 492 566 35,000  Level FlightAware Transoceanic
10:40PM 55.1613 -21.1614 103° East 492 566 35,000  Level FlightAware Transoceanic
10:41PM 55.1299 -20.9284 103° East 492 566 35,000  Level FlightAware Transoceanic
10:42PM 55.0981 -20.6957 104° East 492 566 35,000  Level FlightAware Transoceanic
10:43PM 55.0658 -20.4634 104° East 492 566 35,000  Level FlightAware Transoceanic
10:44PM 55.0331 -20.2315 104° East 492 566 35,000  Level FlightAware Transoceanic
10:45PM 55.0000 -19.9999 101° East  Level FlightAware Approximate
10:46PM 54.9733 -19.7659 101° East  Level FlightAware Approximate
10:47PM 54.9462 -19.5323 102° East  Level FlightAware Approximate
10:48PM 54.9186 -19.2989 102° East  Level FlightAware Approximate
10:49PM 54.8906 -19.0659 102° East  Level FlightAware Approximate
10:50PM 54.8622 -18.8332 102° East  Level FlightAware Approximate
10:51PM 54.8333 -18.6009 102° East  Level FlightAware Approximate
10:52PM 54.8039 -18.3688 102° East  Level FlightAware Approximate
10:53PM 54.7741 -18.1371 103° East  Level FlightAware Approximate
10:54PM 54.7439 -17.9058 103° East  Level FlightAware Approximate
10:55PM 54.7132 -17.6748 103° East  Level FlightAware Approximate
10:56PM 54.6821 -17.4441 103° East  Level FlightAware Approximate
10:57PM 54.6506 -17.2139 103° East  Level FlightAware Approximate
10:58PM 54.6186 -16.9839 106° East  Level FlightAware Approximate
10:59PM 54.5800 -16.7577 104° East  Level FlightAware Approximate
11:00PM 54.5478 -16.5283 104° East  Level FlightAware Approximate
11:01PM 54.5151 -16.2992 104° East  Level FlightAware Approximate
11:02PM 54.4819 -16.0706 104° East  Level FlightAware Approximate
11:03PM 54.4484 -15.8423 104° East  Level FlightAware Approximate
11:04PM 54.4144 -15.6143 104° East  Level FlightAware Approximate
11:05PM 54.3799 -15.3868 105° East  Level FlightAware Approximate
11:06PM 54.3451 -15.1596 105° East  Level FlightAware Approximate
11:07PM 54.3098 -14.9328 105° East  Level FlightAware Approximate
11:08PM 54.2741 -14.7064 105° East  Level FlightAware Approximate
11:09PM 54.2380 -14.4804 105° East  Level FlightAware Approximate
11:10PM 54.2014 -14.2549 106° East  Level FlightAware Approximate
11:11PM 54.1645 -14.0297 106° East  Level FlightAware Approximate
11:12PM 54.1258 -13.8058 102° East  Level FlightAware Approximate
11:13PM 54.0961 -13.5779 106° East  Level FlightAware Approximate
11:14PM 54.0577 -13.3540 106° East  Level FlightAware Approximate
11:15PM 54.0189 -13.1305 107° East  Level FlightAware Approximate
11:16PM 53.9796 -12.9074 107° East  Level FlightAware Approximate
11:17PM 53.9400 -12.6848 107° East  Level FlightAware Approximate
11:18PM 53.8999 -12.4626 107° East  Level FlightAware Approximate
11:19PM 53.8595 -12.2408 107° East  Level FlightAware Approximate
11:20PM 53.8186 -12.0194 107° East  Level FlightAware Approximate
11:21PM 53.7773 -11.7984 108° East  Level FlightAware Approximate
11:22PM 53.7356 -11.5779 108° East  Level FlightAware Approximate
11:23PM 53.6935 -11.3579 108° East  Level FlightAware Approximate
11:24PM 53.6510 -11.1383 114° Southeast  Level FlightAware Approximate
11:25PM 53.5956 -10.9274 108° East  Level FlightAware Approximate
11:26PM 53.5526 -10.7086 108° East  Level FlightAware Approximate
11:27PM 53.5091 -10.4902 109° East  Level FlightAware Approximate
11:28PM 53.4653 -10.2723 109° East  Level FlightAware Approximate
11:29PM 53.4211 -10.0548 109° East  Level FlightAware Approximate
11:30PM 53.3764 -9.8378 109° East  Level FlightAware Approximate
11:31PM 53.3314 -9.6213 109° East  Level FlightAware Approximate
11:32PM 53.2860 -9.4052 109° East  Level FlightAware Approximate
11:33PM 53.2402 -9.1896 110° East  Level FlightAware Approximate
11:34PM 53.1940 -8.9744 110° East  Level FlightAware Approximate
11:35PM 53.1474 -8.7597 110° East  Level FlightAware Approximate
11:36PM 53.1005 -8.5454 110° East  Level FlightAware Approximate
11:37PM 53.0531 -8.3317 110° East  Level FlightAware Approximate
11:38PM 53.0054 -8.1184 110° East  Level FlightAware Approximate
11:39PM 52.9573 -7.9055 111° Southeast  Level FlightAware Approximate
11:40PM 52.9088 -7.6932 111° Southeast  Level FlightAware Approximate
11:41PM 52.8599 -7.4813 111° Southeast  Level FlightAware Approximate
11:42PM 52.8107 -7.2699 111° Southeast  Level FlightAware Approximate
11:43PM 52.7611 -7.0590 111° Southeast  Level FlightAware Approximate
11:44PM 52.7111 -6.8486 112° Southeast  Level FlightAware Approximate
11:45PM 52.6607 -6.6386 112° Southeast  Level FlightAware Approximate
11:46PM 52.6100 -6.4292 112° Southeast  Level FlightAware Approximate
11:47PM 52.5589 -6.2202 112° Southeast  Level FlightAware Approximate
11:48PM 52.5074 -6.0117 109° East  Level FlightAware Approximate
11:49PM 52.4622 -5.7996 112° Southeast  Level FlightAware Approximate
11:50PM 52.4097 -5.5922 114° Southeast  Level FlightAware Approximate
11:51PM 52.3539 -5.3876 115° Southeast  Level FlightAware Approximate
11:52PM 52.2964 -5.1844 115° Southeast  Level FlightAware Approximate
11:53PM 52.2385 -4.9816 115° Southeast  Level FlightAware Approximate
11:54PM 52.1803 -4.7795 115° Southeast  Level FlightAware Approximate
11:55PM 52.1218 -4.5778 115° Southeast  Level FlightAware Approximate
11:56PM 52.0629 -4.3767 116° Southeast  Level FlightAware Approximate
11:57PM 52.0037 -4.1761 116° Southeast  Level FlightAware Approximate
11:58PM 51.9441 -3.9761 103° East  Level FlightAware Approximate
11:59PM 51.9142 -3.7668 120° Southeast  Level FlightAware Approximate
12:00AM 51.8451 -3.5755 120° Southeast  Level FlightAware Approximate
12:01AM 51.7756 -3.3847 121° Southeast  Level FlightAware Approximate
12:02AM 51.7059 -3.1945 121° Southeast  Level FlightAware Approximate
12:03AM 51.6358 -3.0049 85° East  Level FlightAware Approximate
12:04AM 51.6477 -2.7997 124° Southeast  Level FlightAware Approximate
12:05AM 51.5705 -2.6176 124° Southeast  Level FlightAware Approximate
12:06AM 51.4932 -2.4361 125° Southeast  Level FlightAware Approximate
12:07AM 51.4155 -2.2553 125° Southeast  Level FlightAware Approximate
12:08AM 51.3375 -2.0750 126° Southeast  Level FlightAware Approximate
12:09AM 51.2574 -1.8976 126° Southeast  Level FlightAware Approximate
12:10AM 51.1770 -1.7207 126° Southeast  Level FlightAware Approximate
12:11AM 51.0961 -1.5447 127° Southeast  Level FlightAware Approximate
12:12AM 51.0140 -1.3706 127° Southeast  Level FlightAware Approximate
12:13AM 50.9315 -1.1971 127° Southeast  Level FlightAware Approximate
12:14AM 50.8489 -1.0242 127° Southeast  Level FlightAware Approximate
12:15AM 50.7659 -0.8518 127° Southeast  Level FlightAware Approximate
12:16AM 50.6828 -0.6802 127° Southeast  Level FlightAware Approximate
12:17AM 50.5993 -0.5091 128° Southeast  Level FlightAware Approximate
12:18AM 50.5156 -0.3386 128° Southeast  Level FlightAware Approximate
12:19AM 50.4317 -0.1687 128° Southeast  Level FlightAware Approximate
12:20AM 50.3475 0.0005 128° Southeast  Level FlightAware Approximate
12:21AM 50.2631 0.1692 128° Southeast  Level FlightAware Approximate
12:22AM 50.1784 0.3373 128° Southeast  Level FlightAware Approximate
12:23AM 50.0935 0.5048 128° Southeast  Level FlightAware Approximate
12:24AM 50.0084 0.6717 129° Southeast  Level FlightAware Approximate
12:25AM 49.9230 0.8379 129° Southeast  Level FlightAware Approximate
12:26AM 49.8373 1.0037 129° Southeast  Level FlightAware Approximate
12:27AM 49.7515 1.1688 129° Southeast  Level FlightAware Approximate
12:28AM 49.6654 1.3333 129° Southeast  Level FlightAware Approximate
12:29AM 49.5791 1.4973 93° East  Level FlightAware Approximate
12:30AM 49.5713 1.6999 136° Southeast  Level FlightAware Approximate
12:31AM 49.4734 1.8473 138° Southeast  Level FlightAware Approximate
12:32AM 49.3726 1.9874 135° Southeast  Level FlightAware Approximate
12:33AM 49.2759 2.1361 137° Southeast  Level FlightAware Approximate
12:34AM 49.1755 2.2785 134° Southeast  Level FlightAware Approximate
12:35AM 49.0799 2.4280 139° Southeast  Level FlightAware Approximate
12:36AM 49.0000 2.5333 41° Northeast  Level FlightAware Approximate
12:37AM 49.1039 2.6692 301° West  Level Estimated
12:38AM 49.3586 2.0090 135° Southeast  Level FlightAware Approximate
12:39AM 49.2614 2.1568 135° Southeast  Level FlightAware Approximate
12:40AM 49.1640 2.3039 135° Southeast  Level FlightAware Approximate
12:41AM 49.0663 2.4504 129° Southeast  Level FlightAware Approximate
12:42AM 48.9795 2.6118 309° West  Level Estimated
12:43AM 49.0663 2.4504 129° Southeast  Level Estimated
12:44AM 48.9795 2.6118 309° West  Level Estimated
12:45AM 49.0663 2.4504 141° Southeast  Level Estimated
12:46AM 49.0000 2.5333 41° Northeast  Level FlightAware Approximate
12:47AM 49.1039 2.6692 221° Southwest  Level Estimated
12:48AM 49.0000 2.5333 41° Northeast  Level FlightAware Approximate
12:49AM 49.1039 2.6692 221° Southwest  Level Estimated
12:50AM 49.0000 2.5333 41° Northeast  Level FlightAware Approximate
12:51AM 49.1039 2.6692 221° Southwest  Level Estimated
12:52AM 49.0000 2.5333 41° Northeast  Level FlightAware Approximate
12:53AM 49.1039 2.6692 221° Southwest  Level Estimated
12:54AM 49.0000 2.5333 41° Northeast  Level FlightAware Approximate
12:55AM 49.1039 2.6692 221° Southwest  Level Estimated
12:56AM 49.0000 2.5333 41° Northeast  Level FlightAware Approximate
12:57AM 49.1039 2.6692 221° Southwest  Level Estimated
12:58AM 49.0000 2.5333 41° Northeast  Level FlightAware Approximate
12:59AM 49.1039 2.6692 221° Southwest  Level Estimated
01:00AM 49.0000 2.5333 41° Northeast  Level FlightAware Approximate
01:01AM 49.1039 2.6692 41° Northeast  Level Estimated